Time;durP1;ratioP1;P1;durP2;ratioP2;P2;SDS_P1;SDS_P2;PMS_P1;PMS_P2;Temp;Humidity;BMP_temperature;BMP_pressure;BME280_temperature;BME280_humidity;BME280_pressure;Samples;Min_cycle;Max_cycle;Signal;HPM_P1;HPM_P2
2021/06/24 00:00:45;;;;;;;;;;;;;;;-144.31;80.47;74363.41;5045767;28;20358;-69
2021/06/24 00:03:10;;;;;;;;;;;;;;;-144.31;80.37;74369.41;5024119;28;20440;-70
2021/06/24 00:05:35;;;;;;;;;;;;;;;-144.31;80.11;74363.41;5055673;28;19944;-70
2021/06/24 00:08:01;;;;;;;;;;;;;;;-144.31;80.05;74379.38;5046842;28;20050;-70
2021/06/24 00:10:26;;;;;;;;;;;;;;;-144.31;79.90;74369.41;5047131;28;20031;-72
2021/06/24 00:12:51;;;;;;;;;;;;;;;-144.31;79.57;74357.44;5034211;28;19927;-70
2021/06/24 00:15:17;;;;;;;;;;;;;;;-144.31;79.47;74381.38;5071829;28;19920;-70
2021/06/24 00:17:43;;;;;;;;;;;;;;;-144.31;79.22;74377.38;5056390;28;20491;-70
2021/06/24 00:20:08;;;;;;;;;;;;;;;-144.31;79.00;74369.41;5044819;28;19920;-69
2021/06/24 00:22:34;;;;;;;;;;;;;;;-144.31;78.93;74377.38;5047268;28;19932;-69
2021/06/24 00:24:59;;;;;;;;;;;;;;;-144.31;78.92;74393.38;5029602;28;19921;-69
2021/06/24 00:27:25;;;;;;;;;;;;;;;-144.31;78.76;74387.38;5031283;28;20433;-70
2021/06/24 00:29:50;;;;;;;;;;;;;;;-144.31;78.61;74395.38;5061965;28;19921;-69
2021/06/24 00:32:16;;;;;;;;;;;;;;;-144.31;78.16;74411.34;5032614;28;19917;-70
2021/06/24 00:34:41;;;;;;;;;;;;;;;-144.31;78.10;74425.31;5052877;28;19942;-70
2021/06/24 00:37:06;;;;;;;;;;;;;;;-144.31;77.95;74429.31;5026363;28;19924;-70
2021/06/24 00:39:32;;;;;;;;;;;;;;;-144.31;77.75;74421.31;5030655;28;19920;-71
2021/06/24 00:41:58;;;;;;;;;;;;;;;-144.31;77.51;74425.31;5031354;28;19994;-71
2021/06/24 00:44:24;;;;;;;;;;;;;;;-144.31;77.17;74423.31;5054491;28;20432;-70
2021/06/24 00:46:52;;;;;;;;;;;;;;;-144.31;76.81;74425.31;5051015;28;19928;-72
2021/06/24 00:49:18;;;;;;;;;;;;;;;-144.31;76.31;74427.31;5050421;28;19920;-71
2021/06/24 00:51:46;;;;;;;;;;;;;;;-144.31;75.82;74431.31;5055247;28;19927;-70
2021/06/24 00:54:12;;;;;;;;;;;;;;;-144.31;75.41;74433.31;5067325;28;19921;-71
2021/06/24 00:56:40;;;;;;;;;;;;;;;-144.31;75.11;74437.28;5055303;28;19928;-73
2021/06/24 00:59:05;;;;;;;;;;;;;;;-144.31;74.82;74437.28;5034467;28;20225;-72
2021/06/24 01:01:33;;;;;;;;;;;;;;;-144.31;74.59;74439.28;5033533;28;20003;-71
2021/06/24 01:03:59;;;;;;;;;;;;;;;-144.31;74.45;74451.28;5032531;28;19924;-71
2021/06/24 01:06:24;;;;;;;;;;;;;;;-144.31;74.30;74455.25;5036830;28;19920;-71
2021/06/24 01:08:50;;;;;;;;;;;;;;;-144.31;74.15;74447.28;5032407;28;19924;-70
2021/06/24 01:11:19;;;;;;;;;;;;;;;-144.31;73.98;74453.25;5032595;28;20386;-70
2021/06/24 01:13:45;;;;;;;;;;;;;;;-144.31;73.84;74457.25;5032463;28;20015;-70
2021/06/24 01:16:11;;;;;;;;;;;;;;;-144.31;73.71;74455.25;5067896;28;20308;-71
2021/06/24 01:18:37;;;;;;;;;;;;;;;-144.31;73.56;74455.25;5029793;28;19955;-70
2021/06/24 01:21:05;;;;;;;;;;;;;;;-144.31;73.42;74453.25;5049889;28;19968;-70
2021/06/24 01:23:38;;;;;;;;;;;;;;;-144.31;73.26;74447.28;5032859;28;19921;-72
2021/06/24 01:26:05;;;;;;;;;;;;;;;-144.31;73.10;74439.28;5027906;28;19974;-71
2021/06/24 01:28:31;;;;;;;;;;;;;;;-144.31;73.01;74445.28;5050168;28;19917;-71
2021/06/24 01:30:56;;;;;;;;;;;;;;;-144.31;72.88;74441.28;5052654;28;19920;-73
2021/06/24 01:33:23;;;;;;;;;;;;;;;-144.31;72.78;74447.28;5042022;28;20019;-72
2021/06/24 01:35:49;;;;;;;;;;;;;;;-144.31;72.67;74451.28;5035775;28;20427;-71
2021/06/24 01:38:15;;;;;;;;;;;;;;;-144.31;72.66;74461.25;5016056;28;20007;-69
2021/06/24 01:40:55;;;;;;;;;;;;;;;-144.31;72.58;74455.25;5039216;28;19916;-69
2021/06/24 01:43:24;;;;;;;;;;;;;;;-144.31;72.49;74459.25;5058271;28;19960;-70
2021/06/24 01:45:51;;;;;;;;;;;;;;;-144.31;72.42;74455.25;5063739;28;19920;-70
2021/06/24 01:48:17;;;;;;;;;;;;;;;-144.31;72.35;74449.28;5050901;28;19920;-70
2021/06/24 01:50:44;;;;;;;;;;;;;;;-144.31;72.28;74445.28;5030699;28;20483;-70
2021/06/24 01:53:09;;;;;;;;;;;;;;;-144.31;72.17;74439.28;5048148;28;19921;-70
2021/06/24 01:55:36;;;;;;;;;;;;;;;-144.31;72.10;74439.28;5031363;28;19921;-70
2021/06/24 01:58:08;;;;;;;;;;;;;;;-144.31;72.04;74437.28;5052194;28;19999;-69
2021/06/24 02:01:00;;;;;;;;;;;;;;;-144.31;71.96;74435.28;5031885;28;19924;-70
2021/06/24 02:03:27;;;;;;;;;;;;;;;-144.31;71.90;74435.28;5061506;28;19970;-71
2021/06/24 02:05:54;;;;;;;;;;;;;;;-144.31;71.81;74435.28;5049136;28;19959;-72
2021/06/24 02:08:21;;;;;;;;;;;;;;;-144.31;71.73;74433.31;5047939;28;20551;-70
2021/06/24 02:11:06;;;;;;;;;;;;;;;-144.31;71.65;74429.31;5068260;28;19928;-71
2021/06/24 02:13:34;;;;;;;;;;;;;;;-144.31;71.61;74427.31;5032230;28;19952;-71
2021/06/24 02:16:05;;;;;;;;;;;;;;;-144.31;71.57;74427.31;5033768;28;20366;-71
2021/06/24 02:18:31;;;;;;;;;;;;;;;-144.31;71.53;74433.31;5029646;28;19925;-71
2021/06/24 02:20:58;;;;;;;;;;;;;;;-144.31;71.49;74435.28;5062126;28;19924;-70
2021/06/24 02:23:36;;;;;;;;;;;;;;;-144.31;71.42;74429.31;5030484;28;19951;-71
2021/06/24 02:26:16;;;;;;;;;;;;;;;-144.31;71.39;74425.31;5029271;28;20062;-71
2021/06/24 02:28:49;;;;;;;;;;;;;;;-144.31;71.32;74415.34;5050410;28;19931;-72
2021/06/24 02:31:35;;;;;;;;;;;;;;;-144.31;71.33;74421.31;5046503;28;19924;-70
2021/06/24 02:34:08;;;;;;;;;;;;;;;-144.31;71.32;74421.31;5064601;28;19931;-71
2021/06/24 02:36:47;;;;;;;;;;;;;;;-144.31;71.28;74421.31;5034996;28;19924;-71
2021/06/24 02:39:12;;;;;;;;;;;;;;;-144.31;71.27;74419.31;5017968;28;20310;-71
2021/06/24 02:41:39;;;;;;;;;;;;;;;-144.31;71.21;74413.34;5047660;28;19935;-71
2021/06/24 02:44:06;;;;;;;;;;;;;;;-144.31;71.16;74413.34;5030307;28;19947;-71
2021/06/24 02:46:31;;;;;;;;;;;;;;;-144.31;71.13;74415.34;5036452;28;19920;-71
2021/06/24 02:48:57;;;;;;;;;;;;;;;-144.31;71.11;74407.34;5059228;28;20355;-70
2021/06/24 02:51:36;;;;;;;;;;;;;;;-144.31;71.05;74397.34;5071456;28;20019;-71
2021/06/24 02:54:15;;;;;;;;;;;;;;;-144.31;71.02;74409.34;5052872;28;19927;-70
2021/06/24 02:56:42;;;;;;;;;;;;;;;-144.31;70.99;74399.34;5015233;28;20020;-70
2021/06/24 02:59:27;;;;;;;;;;;;;;;-144.31;70.94;74399.34;5048785;28;19921;-71
2021/06/24 03:01:53;;;;;;;;;;;;;;;-144.31;70.88;74395.38;5012842;28;20008;-70
2021/06/24 03:04:26;;;;;;;;;;;;;;;-144.31;70.81;74397.34;5027620;28;20174;-71
2021/06/24 03:06:52;;;;;;;;;;;;;;;-144.31;70.79;74399.34;5047576;28;20460;-71
2021/06/24 03:09:18;;;;;;;;;;;;;;;-144.31;70.70;74399.34;5031816;28;19920;-72
2021/06/24 03:11:44;;;;;;;;;;;;;;;-144.31;70.67;74403.34;5046220;28;19920;-71
2021/06/24 03:14:10;;;;;;;;;;;;;;;-144.31;70.63;74403.34;5032114;28;19947;-71
2021/06/24 03:16:39;;;;;;;;;;;;;;;-144.31;70.64;74407.34;5030924;28;19947;-71
2021/06/24 03:19:06;;;;;;;;;;;;;;;-144.31;70.53;74403.34;5049602;28;20319;-70
2021/06/24 03:21:37;;;;;;;;;;;;;;;-144.31;70.47;74411.34;5035046;28;19920;-74
2021/06/24 03:24:02;;;;;;;;;;;;;;;-144.31;70.50;74415.34;5047744;28;20338;-72
2021/06/24 03:26:31;;;;;;;;;;;;;;;-144.31;70.51;74427.31;5028011;28;19920;-71
2021/06/24 03:29:06;;;;;;;;;;;;;;;-144.31;70.54;74429.31;5030433;28;19917;-71
2021/06/24 03:31:40;;;;;;;;;;;;;;;-144.31;70.55;74425.31;5029490;28;19917;-70
2021/06/24 03:34:06;;;;;;;;;;;;;;;-144.31;70.55;74425.31;5032259;28;19917;-71
2021/06/24 03:36:32;;;;;;;;;;;;;;;-144.31;70.53;74421.31;5053085;28;19916;-70
2021/06/24 03:38:58;;;;;;;;;;;;;;;-144.31;70.49;74415.34;5029045;28;19927;-71
2021/06/24 03:41:29;;;;;;;;;;;;;;;-144.31;70.47;74411.34;5030508;28;19927;-71
2021/06/24 03:43:57;;;;;;;;;;;;;;;-144.31;70.44;74399.34;5030142;28;19931;-71
2021/06/24 03:46:25;;;;;;;;;;;;;;;-144.31;70.39;74391.38;5051399;28;20008;-70
2021/06/24 03:48:51;;;;;;;;;;;;;;;-144.31;70.39;74389.38;5050226;28;19924;-71
2021/06/24 03:51:21;;;;;;;;;;;;;;;-144.31;70.39;74379.38;5034388;28;19954;-73
2021/06/24 03:53:55;;;;;;;;;;;;;;;-144.31;70.37;74371.41;5045530;28;19925;-72
2021/06/24 03:56:20;;;;;;;;;;;;;;;-144.31;70.39;74363.41;5029716;28;20310;-71
2021/06/24 03:58:48;;;;;;;;;;;;;;;-144.31;70.38;74359.41;5049453;28;19921;-71
2021/06/24 04:01:14;;;;;;;;;;;;;;;-144.31;70.33;74353.44;5030083;28;19917;-71
2021/06/24 04:03:40;;;;;;;;;;;;;;;-144.31;70.37;74349.44;5029177;28;20380;-71
2021/06/24 04:06:11;;;;;;;;;;;;;;;-144.31;70.41;74355.44;5029149;28;19920;-71
2021/06/24 04:08:37;;;;;;;;;;;;;;;-144.31;70.43;74365.41;5046497;28;19932;-70
2021/06/24 04:11:12;;;;;;;;;;;;;;;-144.31;70.49;74369.41;5028722;28;19928;-70
2021/06/24 04:13:41;;;;;;;;;;;;;;;-144.31;70.55;74369.41;5029754;28;19966;-72
2021/06/24 04:16:27;;;;;;;;;;;;;;;-144.31;70.59;74353.44;5046720;28;19923;-70
2021/06/24 04:18:52;;;;;;;;;;;;;;;-144.31;70.63;74345.44;5063157;28;19920;-71
2021/06/24 04:21:18;;;;;;;;;;;;;;;-144.31;70.69;74339.44;5029982;28;20267;-72
2021/06/24 04:23:49;;;;;;;;;;;;;;;-144.31;70.72;74307.50;5030303;28;20415;-71
2021/06/24 04:26:14;;;;;;;;;;;;;;;-144.31;70.74;74285.53;5058936;28;19921;-71
2021/06/24 04:28:40;;;;;;;;;;;;;;;-144.31;70.87;74269.56;5028345;28;20067;-70
2021/06/24 04:31:09;;;;;;;;;;;;;;;-144.31;70.96;74257.59;5029026;28;19920;-70
2021/06/24 04:33:35;;;;;;;;;;;;;;;-144.31;71.17;74249.59;5030935;28;19932;-71
2021/06/24 04:36:19;;;;;;;;;;;;;;;-144.31;71.29;74217.66;5047510;28;19955;-70
2021/06/24 04:38:47;;;;;;;;;;;;;;;-144.31;71.45;74199.69;5028076;28;20298;-70
2021/06/24 04:41:13;;;;;;;;;;;;;;;-144.31;71.65;74187.72;5035275;28;19916;-71
2021/06/24 04:43:55;;;;;;;;;;;;;;;-144.31;71.82;74163.75;5062261;28;19943;-71
2021/06/24 04:46:21;;;;;;;;;;;;;;;-144.31;71.94;74139.78;5065952;28;19920;-71
2021/06/24 04:48:47;;;;;;;;;;;;;;;-144.31;72.09;74101.84;5042355;28;20434;-71
2021/06/24 04:51:31;;;;;;;;;;;;;;;-144.31;72.45;74105.84;5055411;28;20415;-69
2021/06/24 04:53:56;;;;;;;;;;;;;;;-144.31;72.75;74103.84;5038211;28;20016;-72
2021/06/24 04:56:25;;;;;;;;;;;;;;;-144.31;73.28;74141.78;5031361;28;19935;-70
2021/06/24 04:58:53;;;;;;;;;;;;;;;-144.31;73.55;74121.81;5047390;28;19920;-72
2021/06/24 05:01:37;;;;;;;;;;;;;;;-144.31;74.12;74147.78;5049967;28;20525;-71
2021/06/24 05:04:21;;;;;;;;;;;;;;;-144.31;74.56;74127.81;5047099;28;20473;-71
2021/06/24 05:06:51;;;;;;;;;;;;;;;-144.31;75.18;74129.81;5046162;28;19925;-71
2021/06/24 05:09:23;;;;;;;;;;;;;;;-144.31;75.78;74111.84;5043593;28;20199;-71
2021/06/24 05:11:49;;;;;;;;;;;;;;;-144.31;76.31;74085.88;5040056;28;19921;-71
2021/06/24 05:14:14;;;;;;;;;;;;;;;-144.31;76.70;74067.91;5046623;28;19925;-71
2021/06/24 05:16:40;;;;;;;;;;;;;;;-144.31;77.42;74069.91;5043540;28;20480;-70
2021/06/24 05:19:08;;;;;;;;;;;;;;;-144.31;78.04;74075.91;5048325;28;20430;-70
2021/06/24 05:21:33;;;;;;;;;;;;;;;-144.31;78.45;74063.91;5055375;28;20484;-70
2021/06/24 05:23:58;;;;;;;;;;;;;;;-144.31;79.07;74081.88;5037255;28;19924;-71
2021/06/24 05:26:26;;;;;;;;;;;;;;;-144.31;79.27;74045.94;5048493;28;19992;-70
2021/06/24 05:28:52;;;;;;;;;;;;;;;-144.31;79.64;74039.97;5050858;28;19936;-71
2021/06/24 05:31:18;;;;;;;;;;;;;;;-144.31;80.46;74059.94;5029233;28;20018;-71
2021/06/24 05:33:43;;;;;;;;;;;;;;;-144.31;81.15;74053.94;5030496;28;19921;-71
2021/06/24 05:36:08;;;;;;;;;;;;;;;-144.31;81.60;74029.97;5034091;28;19927;-70
2021/06/24 05:38:34;;;;;;;;;;;;;;;-144.31;82.19;74029.97;5050885;28;20018;-71
2021/06/24 05:40:59;;;;;;;;;;;;;;;-144.31;82.97;74045.94;5048868;28;19925;-71
2021/06/24 05:43:25;;;;;;;;;;;;;;;-144.31;83.52;74031.97;5034166;28;19924;-70
2021/06/24 05:45:52;;;;;;;;;;;;;;;-144.31;83.72;74006.03;5051147;28;20314;-71
2021/06/24 05:48:18;;;;;;;;;;;;;;;-144.31;85.24;74037.97;5040374;28;19928;-69
2021/06/24 05:50:44;;;;;;;;;;;;;;;-144.31;86.11;74029.97;5054377;28;19924;-69
2021/06/24 05:53:12;;;;;;;;;;;;;;;-144.31;87.16;74018.00;5050579;28;19920;-67
2021/06/24 05:55:50;;;;;;;;;;;;;;;-144.31;87.75;73998.03;5052999;28;19932;-72
2021/06/24 05:58:26;;;;;;;;;;;;;;;-144.31;88.86;73980.06;5023505;28;20450;-71
2021/06/24 06:00:52;;;;;;;;;;;;;;;-144.31;88.73;73954.09;5048470;28;19917;-70
2021/06/24 06:03:19;;;;;;;;;;;;;;;-144.31;88.32;73914.19;5050051;28;19924;-72
2021/06/24 06:05:45;;;;;;;;;;;;;;;-144.31;91.65;73968.09;5039219;28;20015;-69
2021/06/24 06:08:11;;;;;;;;;;;;;;;-144.31;92.13;73922.16;5058079;28;20020;-69
2021/06/24 06:10:37;;;;;;;;;;;;;;;-144.31;92.71;73876.25;5059379;28;19967;-69
2021/06/24 06:13:05;;;;;;;;;;;;;;;-144.31;99.38;73936.13;5058962;28;19916;-70
2021/06/24 06:15:31;;;;;;;;;;;;;;;-144.31;100.00;73864.25;5061166;28;20459;-69
2021/06/24 06:17:56;;;;;;;;;;;;;;;-144.31;100.00;73848.28;5041112;28;19921;-70
2021/06/24 06:20:21;;;;;;;;;;;;;;;-144.31;100.00;73726.50;5075960;28;19920;-69
2021/06/24 06:22:47;;;;;;;;;;;;;;;-144.31;100.00;73654.66;5057485;28;20472;-71
2021/06/24 06:25:13;;;;;;;;;;;;;;;-144.31;100.00;73674.59;5051428;28;19924;-71
2021/06/24 06:27:39;;;;;;;;;;;;;;;-144.31;100.00;73618.72;5049999;28;19931;-72
2021/06/24 06:30:05;;;;;;;;;;;;;;;-144.31;100.00;73598.75;5052408;28;20302;-72
2021/06/24 06:32:30;;;;;;;;;;;;;;;-144.31;100.00;73574.78;5048974;28;19923;-72
2021/06/24 06:34:58;;;;;;;;;;;;;;;-144.31;100.00;73592.75;5056119;28;19927;-71
2021/06/24 06:37:23;;;;;;;;;;;;;;;-144.31;100.00;73526.88;5046838;28;20018;-72
2021/06/24 06:39:48;;;;;;;;;;;;;;;-144.31;100.00;73484.97;5050702;28;20438;-73
2021/06/24 06:42:14;;;;;;;;;;;;;;;-144.31;100.00;73552.84;5048009;28;19916;-75
2021/06/24 06:44:39;;;;;;;;;;;;;;;-144.31;100.00;73496.94;5053537;28;20426;-73
2021/06/24 06:47:05;;;;;;;;;;;;;;;-144.31;100.00;73514.91;5033215;28;19925;-72
2021/06/24 06:49:30;;;;;;;;;;;;;;;-144.31;100.00;73488.94;5052347;28;19925;-72
2021/06/24 06:51:55;;;;;;;;;;;;;;;-144.31;100.00;73508.91;5046583;28;19925;-73
2021/06/24 06:54:21;;;;;;;;;;;;;;;-144.31;100.00;73504.91;5028986;28;19924;-72
2021/06/24 06:56:46;;;;;;;;;;;;;;;-144.31;100.00;73502.91;5034700;28;19994;-72
2021/06/24 06:59:12;;;;;;;;;;;;;;;-144.31;100.00;73514.91;5047856;28;19921;-73
2021/06/24 07:01:38;;;;;;;;;;;;;;;-144.31;100.00;73447.03;5049167;28;20010;-72
2021/06/24 07:04:03;;;;;;;;;;;;;;;-144.31;100.00;73361.19;5048261;28;19931;-74
2021/06/24 07:06:31;;;;;;;;;;;;;;;-144.31;100.00;73343.22;5058555;28;20454;-72
2021/06/24 07:08:57;;;;;;;;;;;;;;;-144.31;100.00;73421.06;5040863;28;20364;-71
2021/06/24 07:11:23;;;;;;;;;;;;;;;-144.31;100.00;73295.31;5047784;28;19996;-73
2021/06/24 07:13:49;;;;;;;;;;;;;;;-144.31;100.00;73341.22;5048005;28;19975;-72
2021/06/24 07:16:17;;;;;;;;;;;;;;;-144.31;100.00;73235.44;5051113;28;19920;-71
2021/06/24 07:18:43;;;;;;;;;;;;;;;-144.31;100.00;73211.47;5048515;28;19924;-71
2021/06/24 07:21:09;;;;;;;;;;;;;;;-144.31;100.00;73209.47;5033607;28;19921;-71
2021/06/24 07:23:36;;;;;;;;;;;;;;;-144.31;100.00;73345.22;5049078;28;19921;-72
2021/06/24 07:26:02;;;;;;;;;;;;;;;-144.31;100.00;73215.47;5063397;28;19925;-72
2021/06/24 07:28:28;;;;;;;;;;;;;;;-144.31;100.00;73203.50;5048728;28;19928;-72
2021/06/24 07:30:53;;;;;;;;;;;;;;;-144.31;100.00;73237.44;5049204;28;19921;-72
2021/06/24 07:33:19;;;;;;;;;;;;;;;-144.31;100.00;73341.22;5033199;28;19923;-71
2021/06/24 07:35:44;;;;;;;;;;;;;;;-144.31;100.00;73311.28;5050132;28;20394;-71
2021/06/24 07:38:12;;;;;;;;;;;;;;;-144.31;100.00;73223.44;5034185;28;20004;-72
2021/06/24 07:40:38;;;;;;;;;;;;;;;-144.31;100.00;73173.56;5048683;28;19964;-71
2021/06/24 07:43:05;;;;;;;;;;;;;;;-144.31;100.00;73289.31;5031735;28;19978;-72
2021/06/24 07:45:31;;;;;;;;;;;;;;;-144.31;100.00;73173.56;5047452;28;19973;-71
2021/06/24 07:47:57;;;;;;;;;;;;;;;-144.31;100.00;73023.84;4975274;28;19921;-74
2021/06/24 07:50:22;;;;;;;;;;;;;;;-144.31;100.00;72985.91;4987636;28;19925;-73
2021/06/24 07:52:50;;;;;;;;;;;;;;;-144.31;100.00;73137.63;5028526;28;19920;-72
2021/06/24 07:55:16;;;;;;;;;;;;;;;-144.31;100.00;73125.63;4994863;28;19931;-72
2021/06/24 07:57:43;;;;;;;;;;;;;;;-144.31;100.00;73081.72;5024651;28;19917;-74
2021/06/24 08:00:09;;;;;;;;;;;;;;;-144.31;100.00;73097.69;5013972;28;19962;-73
2021/06/24 08:02:39;;;;;;;;;;;;;;;-144.31;100.00;72983.91;5011397;28;19924;-73
2021/06/24 08:05:05;;;;;;;;;;;;;;;-144.31;100.00;72828.22;5011463;28;20272;-71
2021/06/24 08:07:31;;;;;;;;;;;;;;;-144.31;100.00;73047.78;4995319;28;19929;-74
2021/06/24 08:10:02;;;;;;;;;;;;;;;-144.31;100.00;72896.09;4973894;28;19959;-74
2021/06/24 08:12:29;;;;;;;;;;;;;;;-144.31;100.00;72830.22;5014139;28;19993;-74
2021/06/24 08:14:54;;;;;;;;;;;;;;;-144.31;100.00;73085.72;5011840;28;19927;-73
2021/06/24 08:17:19;;;;;;;;;;;;;;;-144.31;100.00;73111.66;4997424;28;19956;-72
2021/06/24 08:19:45;;;;;;;;;;;;;;;-144.31;100.00;73149.59;5011242;28;20514;-73
2021/06/24 08:22:10;;;;;;;;;;;;;;;-144.31;100.00;73185.53;5026149;28;19966;-71
2021/06/24 08:24:36;;;;;;;;;;;;;;;-144.31;100.00;73169.56;5013464;28;19928;-73
2021/06/24 08:27:01;;;;;;;;;;;;;;;-144.31;100.00;73263.38;5017986;28;19936;-75
2021/06/24 08:29:27;;;;;;;;;;;;;;;-144.31;100.00;73155.59;5020622;28;19927;-75
2021/06/24 08:31:52;;;;;;;;;;;;;;;-144.31;100.00;73051.78;5024348;28;21478;-75
2021/06/24 08:34:17;;;;;;;;;;;;;;;-144.31;100.00;73107.69;5019622;28;19943;-73
2021/06/24 08:36:43;;;;;;;;;;;;;;;-144.31;100.00;73281.34;5016150;28;20067;-73
2021/06/24 08:39:08;;;;;;;;;;;;;;;-144.31;100.00;73247.41;5014412;28;19925;-74
2021/06/24 08:41:35;;;;;;;;;;;;;;;-144.31;100.00;73441.03;5015257;28;20001;-73
2021/06/24 08:44:01;;;;;;;;;;;;;;;-144.31;100.00;73297.31;5017627;28;21452;-74
2021/06/24 08:46:27;;;;;;;;;;;;;;;-144.31;100.00;73187.53;5013167;28;19925;-74
2021/06/24 08:48:53;;;;;;;;;;;;;;;-144.31;100.00;73223.44;4995492;28;19920;-75
2021/06/24 08:51:21;;;;;;;;;;;;;;;-144.31;100.00;73173.56;4995224;28;19925;-73
2021/06/24 08:53:47;;;;;;;;;;;;;;;-144.31;100.00;73361.19;5013660;28;19959;-74
2021/06/24 08:56:15;;;;;;;;;;;;;;;-144.31;100.00;73225.44;5012404;28;21325;-74
2021/06/24 08:58:40;;;;;;;;;;;;;;;-144.31;100.00;73251.41;5013593;28;19925;-74
2021/06/24 09:01:06;;;;;;;;;;;;;;;-144.31;100.00;73113.66;5027897;28;19960;-75
2021/06/24 09:03:40;;;;;;;;;;;;;;;-144.31;100.00;72981.94;4998597;28;20337;-73
2021/06/24 09:06:07;;;;;;;;;;;;;;;-144.31;100.00;73115.66;5000635;28;19963;-74
2021/06/24 09:08:40;;;;;;;;;;;;;;;-144.31;100.00;73171.56;4982880;28;20595;-72
2021/06/24 09:11:06;;;;;;;;;;;;;;;-144.31;100.00;72963.97;5016262;28;21426;-75
2021/06/24 09:13:32;;;;;;;;;;;;;;;-144.31;100.00;72981.94;5043969;28;19962;-76
2021/06/24 09:16:18;;;;;;;;;;;;;;;-144.31;100.00;73143.59;5029680;28;19925;-74
2021/06/24 09:18:44;;;;;;;;;;;;;;;-144.31;100.00;73081.72;5047274;28;21421;-75
2021/06/24 09:21:23;;;;;;;;;;;;;;;-144.31;100.00;73095.69;5045174;28;20008;-74
2021/06/24 09:23:49;;;;;;;;;;;;;;;-144.31;100.00;73297.31;5041877;28;20647;-76
2021/06/24 09:26:15;;;;;;;;;;;;;;;-144.31;100.00;73313.28;5026809;28;19931;-76
2021/06/24 09:28:51;;;;;;;;;;;;;;;-144.31;100.00;73423.06;5042748;28;19917;-76
2021/06/24 09:31:20;;;;;;;;;;;;;;;-144.31;100.00;73415.09;5053273;28;19978;-75
2021/06/24 09:33:47;;;;;;;;;;;;;;;-144.31;100.00;73323.25;5011113;28;19928;-74
2021/06/24 09:36:29;;;;;;;;;;;;;;;-144.31;100.00;73219.47;5042403;28;19970;-75
2021/06/24 09:38:54;;;;;;;;;;;;;;;-144.31;100.00;73149.59;5043568;28;19925;-77
2021/06/24 09:41:20;;;;;;;;;;;;;;;-144.31;100.00;73037.81;5023732;28;19943;-73
2021/06/24 09:43:46;;;;;;;;;;;;;;;-144.31;100.00;72928.03;5026135;28;19924;-75
2021/06/24 09:46:15;;;;;;;;;;;;;;;-144.31;100.00;72900.09;5023392;28;20030;-75
2021/06/24 09:48:47;;;;;;;;;;;;;;;-144.31;100.00;73139.63;5035380;28;19967;-77
2021/06/24 09:51:20;;;;;;;;;;;;;;;-144.31;100.00;73167.56;5020452;28;19920;-76
2021/06/24 09:53:49;;;;;;;;;;;;;;;-144.31;100.00;73071.75;5022552;28;20489;-74
2021/06/24 09:56:18;;;;;;;;;;;;;;;-144.31;100.00;73099.69;5018808;28;19970;-73
2021/06/24 09:58:47;;;;;;;;;;;;;;;-144.31;100.00;72967.94;5026557;28;19924;-74
2021/06/24 10:01:24;;;;;;;;;;;;;;;-144.31;100.00;73185.53;5015860;28;19938;-72
2021/06/24 10:03:52;;;;;;;;;;;;;;;-144.31;100.00;72985.91;5027839;28;19927;-72
2021/06/24 10:06:20;;;;;;;;;;;;;;;-144.31;100.00;73163.56;5010425;28;19929;-75
2021/06/24 10:08:45;;;;;;;;;;;;;;;-144.31;100.00;72969.94;4997759;28;20159;-73
2021/06/24 10:11:11;;;;;;;;;;;;;;;-144.31;100.00;72953.97;5017296;28;21402;-73
2021/06/24 10:13:36;;;;;;;;;;;;;;;-144.31;100.00;72904.09;5012427;28;19939;-73
2021/06/24 10:16:02;;;;;;;;;;;;;;;-144.31;100.00;72928.03;5016913;28;19924;-72
2021/06/24 10:18:31;;;;;;;;;;;;;;;-144.31;100.00;72870.16;4998156;28;19925;-75
2021/06/24 10:20:57;;;;;;;;;;;;;;;-144.31;100.00;72810.28;5015337;28;20016;-73
2021/06/24 10:23:23;;;;;;;;;;;;;;;-144.31;100.00;73173.56;4982070;28;19924;-73
2021/06/24 10:25:51;;;;;;;;;;;;;;;-144.31;100.00;73205.47;5012225;28;19928;-72
2021/06/24 10:28:17;;;;;;;;;;;;;;;-144.31;100.00;72704.50;5016916;28;20047;-73
2021/06/24 10:30:43;;;;;;;;;;;;;;;-144.31;100.00;72668.56;5023900;28;19931;-76
2021/06/24 10:33:11;;;;;;;;;;;;;;;-144.31;100.00;72546.81;5024801;28;20569;-76
2021/06/24 10:35:40;;;;;;;;;;;;;;;-144.31;100.00;72484.94;5024558;28;21205;-76
2021/06/24 10:38:10;;;;;;;;;;;;;;;-144.31;100.00;72590.72;5012585;28;19932;-75
2021/06/24 10:40:39;;;;;;;;;;;;;;;-144.31;100.00;72618.66;5028704;28;19931;-75
2021/06/24 10:43:06;;;;;;;;;;;;;;;-144.31;100.00;72965.97;5047759;28;19921;-74
2021/06/24 10:45:31;;;;;;;;;;;;;;;-144.31;100.00;72794.31;5046314;28;20021;-73
2021/06/24 10:47:57;;;;;;;;;;;;;;;-144.31;100.00;72864.16;5046196;28;20003;-74
2021/06/24 10:50:26;;;;;;;;;;;;;;;-144.31;100.00;72870.16;5057865;28;20382;-74
2021/06/24 10:52:52;;;;;;;;;;;;;;;-144.31;100.00;73047.78;5038197;28;19965;-79
2021/06/24 10:55:37;;;;;;;;;;;;;;;-144.31;100.00;72938.00;5045995;28;19979;-80
2021/06/24 10:58:27;;;;;;;;;;;;;;;-144.31;100.00;72768.34;5026189;28;19931;-80
2021/06/24 11:00:53;;;;;;;;;;;;;;;-144.31;100.00;72526.84;5000826;28;20110;-77
2021/06/24 11:03:24;;;;;;;;;;;;;;;-144.31;100.00;72646.59;5036445;28;20000;-75
2021/06/24 11:05:51;;;;;;;;;;;;;;;-144.31;100.00;72594.72;5018567;28;19952;-76
2021/06/24 11:08:17;;;;;;;;;;;;;;;-144.31;100.00;72730.44;5007877;28;20283;-80
2021/06/24 11:11:01;;;;;;;;;;;;;;;-144.31;100.00;72961.97;5031667;28;19964;-78
2021/06/24 11:13:42;;;;;;;;;;;;;;;-144.31;100.00;72916.06;5032240;28;19972;-80
2021/06/24 11:16:17;;;;;;;;;;;;;;;-144.31;100.00;72830.22;5000549;28;19932;-74
2021/06/24 11:18:50;;;;;;;;;;;;;;;-144.31;100.00;72778.34;4988336;28;20403;-76
2021/06/24 11:21:15;;;;;;;;;;;;;;;-144.31;100.00;73007.88;4985031;28;20890;-73
2021/06/24 11:23:40;;;;;;;;;;;;;;;-144.31;100.00;72712.47;4992839;28;20244;-74
2021/06/24 11:26:10;;;;;;;;;;;;;;;-144.31;100.00;72726.44;4994596;28;19929;-72
2021/06/24 11:28:41;;;;;;;;;;;;;;;-144.31;100.00;72822.25;4992905;28;20011;-72
2021/06/24 11:31:07;;;;;;;;;;;;;;;-144.31;100.00;72774.34;5018476;28;20294;-70
2021/06/24 11:33:35;;;;;;;;;;;;;;;-144.31;100.00;73037.81;5015911;28;19929;-70
2021/06/24 11:36:10;;;;;;;;;;;;;;;-144.31;100.00;72874.13;5025359;28;19923;-70
2021/06/24 11:38:49;;;;;;;;;;;;;;;-144.31;100.00;72959.97;5016578;28;19921;-71
2021/06/24 11:41:19;;;;;;;;;;;;;;;-144.31;100.00;72872.16;5023852;28;19932;-70
2021/06/24 11:44:03;;;;;;;;;;;;;;;-144.31;100.00;72618.66;5024249;28;20484;-71
2021/06/24 11:46:33;;;;;;;;;;;;;;;-144.31;100.00;72708.47;5023330;28;19917;-71
2021/06/24 12:05:04;;;;;;;;;;;;;;;-144.31;100.00;73025.84;5018104;28;19932;-70
2021/06/24 12:07:32;;;;;;;;;;;;;;;-144.31;100.00;72750.41;5047133;28;20453;-70
2021/06/24 12:09:57;;;;;;;;;;;;;;;-144.31;100.00;73055.78;5024117;28;20326;-73
2021/06/24 12:12:26;;;;;;;;;;;;;;;-144.31;100.00;72806.28;5018153;28;20000;-69
2021/06/24 12:14:56;;;;;;;;;;;;;;;-144.31;100.00;72608.69;5018594;28;20087;-73
2021/06/24 12:17:34;;;;;;;;;;;;;;;-144.31;100.00;72726.44;5018143;28;19924;-70
2021/06/24 12:20:00;;;;;;;;;;;;;;;-144.31;100.00;72297.34;5016282;28;20367;-71
2021/06/24 12:22:38;;;;;;;;;;;;;;;-144.31;100.00;72508.91;5023208;28;19928;-72
2021/06/24 12:25:08;;;;;;;;;;;;;;;-144.31;100.00;72640.63;5018041;28;20255;-70
2021/06/24 12:27:39;;;;;;;;;;;;;;;-144.31;100.00;72846.19;5014885;28;20047;-70
2021/06/24 12:30:07;;;;;;;;;;;;;;;-144.31;100.00;72946.00;5031321;28;19967;-70
2021/06/24 12:32:32;;;;;;;;;;;;;;;-144.31;100.00;73041.81;5019822;28;19918;-73
2021/06/24 12:34:58;;;;;;;;;;;;;;;-144.31;100.00;73129.63;5017769;28;20669;-69
2021/06/24 12:37:33;;;;;;;;;;;;;;;-144.31;100.00;73087.72;5017748;28;20521;-69
2021/06/24 12:39:59;;;;;;;;;;;;;;;-144.31;100.00;73029.81;5023782;28;19917;-72
2021/06/24 12:42:24;;;;;;;;;;;;;;;-144.31;100.00;73209.47;5050177;28;19921;-70
2021/06/24 12:44:50;;;;;;;;;;;;;;;-144.31;100.00;73233.44;5028900;28;20026;-70